sensor_id;sensor_type;location;lat;lon;timestamp;temperature;humidity
7004;DHT22;3542;48.812;9.146;2023-01-09T00:01:57;8.00;99.90
7004;DHT22;3542;48.812;9.146;2023-01-09T00:04:22;8.00;99.90
7004;DHT22;3542;48.812;9.146;2023-01-09T00:06:48;8.00;99.90
7004;DHT22;3542;48.812;9.146;2023-01-09T00:09:22;8.00;99.90
7004;DHT22;3542;48.812;9.146;2023-01-09T00:11:48;8.00;99.90
7004;DHT22;3542;48.812;9.146;2023-01-09T00:14:15;8.00;99.90
7004;DHT22;3542;48.812;9.146;2023-01-09T00:16:40;8.00;99.90
7004;DHT22;3542;48.812;9.146;2023-01-09T00:19:06;8.00;99.90
7004;DHT22;3542;48.812;9.146;2023-01-09T00:21:31;8.00;99.90
7004;DHT22;3542;48.812;9.146;2023-01-09T00:23:57;8.00;99.90
7004;DHT22;3542;48.812;9.146;2023-01-09T00:26:22;8.00;99.90
7004;DHT22;3542;48.812;9.146;2023-01-09T00:28:50;8.00;99.90
7004;DHT22;3542;48.812;9.146;2023-01-09T00:31:16;8.00;99.90
7004;DHT22;3542;48.812;9.146;2023-01-09T00:33:54;8.00;99.90
7004;DHT22;3542;48.812;9.146;2023-01-09T00:36:20;8.00;99.90
7004;DHT22;3542;48.812;9.146;2023-01-09T00:38:46;7.90;99.90
7004;DHT22;3542;48.812;9.146;2023-01-09T00:41:16;7.90;99.90
7004;DHT22;3542;48.812;9.146;2023-01-09T00:43:50;7.90;99.90
7004;DHT22;3542;48.812;9.146;2023-01-09T00:46:19;7.90;99.90
7004;DHT22;3542;48.812;9.146;2023-01-09T00:48:47;7.90;99.90
7004;DHT22;3542;48.812;9.146;2023-01-09T00:51:13;7.90;99.90
7004;DHT22;3542;48.812;9.146;2023-01-09T00:53:40;8.00;99.90
7004;DHT22;3542;48.812;9.146;2023-01-09T00:56:10;8.00;99.90
7004;DHT22;3542;48.812;9.146;2023-01-09T00:58:37;8.00;99.90
7004;DHT22;3542;48.812;9.146;2023-01-09T01:01:04;8.00;99.90
7004;DHT22;3542;48.812;9.146;2023-01-09T01:03:29;8.00;99.90
7004;DHT22;3542;48.812;9.146;2023-01-09T01:05:55;8.00;99.90
7004;DHT22;3542;48.812;9.146;2023-01-09T01:08:39;8.00;99.90
7004;DHT22;3542;48.812;9.146;2023-01-09T01:11:07;8.00;99.90
7004;DHT22;3542;48.812;9.146;2023-01-09T01:13:37;8.00;99.90
7004;DHT22;3542;48.812;9.146;2023-01-09T01:16:05;8.00;99.90
7004;DHT22;3542;48.812;9.146;2023-01-09T01:18:31;8.00;99.90
7004;DHT22;3542;48.812;9.146;2023-01-09T01:20:57;8.00;99.90
7004;DHT22;3542;48.812;9.146;2023-01-09T01:23:22;8.00;99.90
7004;DHT22;3542;48.812;9.146;2023-01-09T01:25:48;8.00;99.90
7004;DHT22;3542;48.812;9.146;2023-01-09T01:28:14;8.00;99.90
7004;DHT22;3542;48.812;9.146;2023-01-09T01:30:41;8.10;99.90
7004;DHT22;3542;48.812;9.146;2023-01-09T01:33:08;8.10;99.90
7004;DHT22;3542;48.812;9.146;2023-01-09T01:35:34;8.10;99.90
7004;DHT22;3542;48.812;9.146;2023-01-09T01:37:59;8.00;99.90
7004;DHT22;3542;48.812;9.146;2023-01-09T01:40:25;8.00;99.90
7004;DHT22;3542;48.812;9.146;2023-01-09T01:42:52;8.00;99.90
7004;DHT22;3542;48.812;9.146;2023-01-09T01:45:24;8.00;99.90
7004;DHT22;3542;48.812;9.146;2023-01-09T01:52:57;8.00;99.90
7004;DHT22;3542;48.812;9.146;2023-01-09T01:55:24;8.00;99.90
7004;DHT22;3542;48.812;9.146;2023-01-09T01:57:52;7.90;99.90
7004;DHT22;3542;48.812;9.146;2023-01-09T03:30:56;7.90;99.90
7004;DHT22;3542;48.812;9.146;2023-01-09T03:33:22;7.90;99.90
7004;DHT22;3542;48.812;9.146;2023-01-09T03:35:47;7.80;99.90
7004;DHT22;3542;48.812;9.146;2023-01-09T03:38:13;7.80;99.90
7004;DHT22;3542;48.812;9.146;2023-01-09T03:40:39;7.70;99.90
7004;DHT22;3542;48.812;9.146;2023-01-09T03:43:07;7.70;99.90
7004;DHT22;3542;48.812;9.146;2023-01-09T03:45:33;7.70;99.90
7004;DHT22;3542;48.812;9.146;2023-01-09T03:47:58;7.70;99.90
7004;DHT22;3542;48.812;9.146;2023-01-09T03:50:24;7.70;99.90
7004;DHT22;3542;48.812;9.146;2023-01-09T03:52:49;7.60;99.90
7004;DHT22;3542;48.812;9.146;2023-01-09T03:55:15;7.60;99.90
7004;DHT22;3542;48.812;9.146;2023-01-09T03:57:40;7.60;99.90
7004;DHT22;3542;48.812;9.146;2023-01-09T04:00:06;7.60;99.90
7004;DHT22;3542;48.812;9.146;2023-01-09T04:02:32;7.50;99.90
7004;DHT22;3542;48.812;9.146;2023-01-09T04:04:58;7.50;99.90
7004;DHT22;3542;48.812;9.146;2023-01-09T04:07:23;7.50;99.90
7004;DHT22;3542;48.812;9.146;2023-01-09T04:09:49;7.50;99.90
7004;DHT22;3542;48.812;9.146;2023-01-09T04:12:14;7.40;99.90
7004;DHT22;3542;48.812;9.146;2023-01-09T04:14:40;7.30;99.90
7004;DHT22;3542;48.812;9.146;2023-01-09T04:17:05;7.20;99.90
7004;DHT22;3542;48.812;9.146;2023-01-09T04:19:31;7.20;99.90
7004;DHT22;3542;48.812;9.146;2023-01-09T04:21:56;7.10;99.90
7004;DHT22;3542;48.812;9.146;2023-01-09T04:24:22;6.90;99.90
7004;DHT22;3542;48.812;9.146;2023-01-09T04:26:47;6.90;99.90
7004;DHT22;3542;48.812;9.146;2023-01-09T04:29:13;6.80;99.90
7004;DHT22;3542;48.812;9.146;2023-01-09T04:31:38;6.80;99.90
7004;DHT22;3542;48.812;9.146;2023-01-09T04:34:04;6.70;99.90
7004;DHT22;3542;48.812;9.146;2023-01-09T04:36:29;6.70;99.90
7004;DHT22;3542;48.812;9.146;2023-01-09T04:38:55;6.60;99.90
7004;DHT22;3542;48.812;9.146;2023-01-09T04:41:20;6.60;99.90
7004;DHT22;3542;48.812;9.146;2023-01-09T04:44:04;6.60;99.90
7004;DHT22;3542;48.812;9.146;2023-01-09T04:46:30;6.50;99.90
7004;DHT22;3542;48.812;9.146;2023-01-09T04:48:55;6.50;99.90
7004;DHT22;3542;48.812;9.146;2023-01-09T04:51:21;6.40;99.90
7004;DHT22;3542;48.812;9.146;2023-01-09T04:53:46;6.40;99.90
7004;DHT22;3542;48.812;9.146;2023-01-09T04:56:12;6.40;99.90
7004;DHT22;3542;48.812;9.146;2023-01-09T04:58:37;6.40;99.90
7004;DHT22;3542;48.812;9.146;2023-01-09T05:01:03;6.40;99.90
7004;DHT22;3542;48.812;9.146;2023-01-09T05:03:28;6.40;99.90
7004;DHT22;3542;48.812;9.146;2023-01-09T05:05:54;6.40;99.90
7004;DHT22;3542;48.812;9.146;2023-01-09T05:08:19;6.40;99.90
7004;DHT22;3542;48.812;9.146;2023-01-09T05:10:44;6.40;99.90
7004;DHT22;3542;48.812;9.146;2023-01-09T05:13:10;6.40;99.90
7004;DHT22;3542;48.812;9.146;2023-01-09T05:15:35;6.40;99.90
7004;DHT22;3542;48.812;9.146;2023-01-09T05:18:01;6.40;99.90
7004;DHT22;3542;48.812;9.146;2023-01-09T05:20:26;6.40;99.90
7004;DHT22;3542;48.812;9.146;2023-01-09T05:22:52;6.40;99.90
7004;DHT22;3542;48.812;9.146;2023-01-09T05:25:17;6.40;99.90
7004;DHT22;3542;48.812;9.146;2023-01-09T05:27:43;6.40;99.90
7004;DHT22;3542;48.812;9.146;2023-01-09T05:30:11;6.30;99.90
7004;DHT22;3542;48.812;9.146;2023-01-09T05:32:37;6.30;99.90
7004;DHT22;3542;48.812;9.146;2023-01-09T05:35:02;6.40;99.90
7004;DHT22;3542;48.812;9.146;2023-01-09T05:37:28;6.30;99.90
7004;DHT22;3542;48.812;9.146;2023-01-09T05:39:53;6.30;99.90
7004;DHT22;3542;48.812;9.146;2023-01-09T05:42:19;6.30;99.90
7004;DHT22;3542;48.812;9.146;2023-01-09T05:44:44;6.20;99.90
7004;DHT22;3542;48.812;9.146;2023-01-09T05:47:10;6.20;99.90
7004;DHT22;3542;48.812;9.146;2023-01-09T05:49:35;6.10;99.90
7004;DHT22;3542;48.812;9.146;2023-01-09T05:52:01;6.10;99.90
7004;DHT22;3542;48.812;9.146;2023-01-09T05:54:26;6.10;99.90
7004;DHT22;3542;48.812;9.146;2023-01-09T05:56:52;6.00;99.90
7004;DHT22;3542;48.812;9.146;2023-01-09T05:59:18;6.00;99.90
7004;DHT22;3542;48.812;9.146;2023-01-09T06:01:43;5.90;99.90
7004;DHT22;3542;48.812;9.146;2023-01-09T06:04:09;5.90;99.90
7004;DHT22;3542;48.812;9.146;2023-01-09T06:06:34;5.90;99.90
7004;DHT22;3542;48.812;9.146;2023-01-09T06:09:00;5.90;99.90
7004;DHT22;3542;48.812;9.146;2023-01-09T06:11:27;5.90;99.90
7004;DHT22;3542;48.812;9.146;2023-01-09T06:13:53;5.80;99.90
7004;DHT22;3542;48.812;9.146;2023-01-09T06:16:18;5.80;99.90
7004;DHT22;3542;48.812;9.146;2023-01-09T06:18:44;5.70;99.90
7004;DHT22;3542;48.812;9.146;2023-01-09T06:21:10;5.70;99.90
7004;DHT22;3542;48.812;9.146;2023-01-09T06:23:35;5.70;99.90
7004;DHT22;3542;48.812;9.146;2023-01-09T06:26:00;5.60;99.90
7004;DHT22;3542;48.812;9.146;2023-01-09T06:28:26;5.60;99.90
7004;DHT22;3542;48.812;9.146;2023-01-09T06:30:52;5.60;99.90
7004;DHT22;3542;48.812;9.146;2023-01-09T06:33:17;5.60;99.90
7004;DHT22;3542;48.812;9.146;2023-01-09T06:35:43;5.50;99.90
7004;DHT22;3542;48.812;9.146;2023-01-09T06:38:08;5.40;99.90
7004;DHT22;3542;48.812;9.146;2023-01-09T06:40:34;5.30;99.90
7004;DHT22;3542;48.812;9.146;2023-01-09T06:42:59;5.20;99.90
7004;DHT22;3542;48.812;9.146;2023-01-09T06:45:25;5.20;99.90
7004;DHT22;3542;48.812;9.146;2023-01-09T06:47:50;5.20;99.90
7004;DHT22;3542;48.812;9.146;2023-01-09T06:50:16;5.10;99.90
7004;DHT22;3542;48.812;9.146;2023-01-09T06:52:42;5.10;99.90
7004;DHT22;3542;48.812;9.146;2023-01-09T06:55:08;5.10;99.90
7004;DHT22;3542;48.812;9.146;2023-01-09T06:57:33;5.10;99.90
7004;DHT22;3542;48.812;9.146;2023-01-09T06:59:59;5.20;99.90
7004;DHT22;3542;48.812;9.146;2023-01-09T07:02:24;5.30;99.90
7004;DHT22;3542;48.812;9.146;2023-01-09T07:04:50;5.30;99.90
7004;DHT22;3542;48.812;9.146;2023-01-09T07:07:16;5.40;99.90
7004;DHT22;3542;48.812;9.146;2023-01-09T07:09:42;5.40;99.90
7004;DHT22;3542;48.812;9.146;2023-01-09T07:12:08;5.40;99.90
7004;DHT22;3542;48.812;9.146;2023-01-09T07:14:33;5.50;99.90
7004;DHT22;3542;48.812;9.146;2023-01-09T07:16:59;5.50;99.90
7004;DHT22;3542;48.812;9.146;2023-01-09T07:19:24;5.50;99.90
7004;DHT22;3542;48.812;9.146;2023-01-09T07:21:50;5.50;99.90
7004;DHT22;3542;48.812;9.146;2023-01-09T07:24:15;5.60;99.90
7004;DHT22;3542;48.812;9.146;2023-01-09T07:26:41;5.60;99.90
7004;DHT22;3542;48.812;9.146;2023-01-09T07:29:06;5.60;99.90
7004;DHT22;3542;48.812;9.146;2023-01-09T07:31:32;5.60;99.90
7004;DHT22;3542;48.812;9.146;2023-01-09T07:33:58;5.60;99.90
7004;DHT22;3542;48.812;9.146;2023-01-09T07:36:23;5.60;99.90
7004;DHT22;3542;48.812;9.146;2023-01-09T07:38:49;5.70;99.90
7004;DHT22;3542;48.812;9.146;2023-01-09T07:41:14;5.70;99.90
7004;DHT22;3542;48.812;9.146;2023-01-09T07:43:40;5.70;99.90
7004;DHT22;3542;48.812;9.146;2023-01-09T07:46:05;5.70;99.90
7004;DHT22;3542;48.812;9.146;2023-01-09T07:48:31;5.80;99.90
7004;DHT22;3542;48.812;9.146;2023-01-09T07:50:57;5.80;99.90
7004;DHT22;3542;48.812;9.146;2023-01-09T07:53:23;5.80;99.90
7004;DHT22;3542;48.812;9.146;2023-01-09T07:55:48;5.80;99.90
7004;DHT22;3542;48.812;9.146;2023-01-09T07:58:14;5.80;99.90
7004;DHT22;3542;48.812;9.146;2023-01-09T08:00:39;5.80;99.90
7004;DHT22;3542;48.812;9.146;2023-01-09T08:03:05;5.80;99.90
7004;DHT22;3542;48.812;9.146;2023-01-09T08:05:30;5.90;99.90
7004;DHT22;3542;48.812;9.146;2023-01-09T08:07:56;5.90;99.90
7004;DHT22;3542;48.812;9.146;2023-01-09T08:10:21;6.00;99.90
7004;DHT22;3542;48.812;9.146;2023-01-09T08:12:47;6.00;99.90
7004;DHT22;3542;48.812;9.146;2023-01-09T08:15:13;6.00;99.90
7004;DHT22;3542;48.812;9.146;2023-01-09T08:17:41;6.10;99.90
7004;DHT22;3542;48.812;9.146;2023-01-09T08:20:08;6.20;99.90
7004;DHT22;3542;48.812;9.146;2023-01-09T08:22:35;6.40;99.90
7004;DHT22;3542;48.812;9.146;2023-01-09T08:25:00;6.60;99.90
7004;DHT22;3542;48.812;9.146;2023-01-09T08:27:26;6.70;99.90
7004;DHT22;3542;48.812;9.146;2023-01-09T08:29:51;6.80;99.90
7004;DHT22;3542;48.812;9.146;2023-01-09T08:32:17;6.80;99.90
7004;DHT22;3542;48.812;9.146;2023-01-09T08:34:42;6.90;99.90
7004;DHT22;3542;48.812;9.146;2023-01-09T08:37:08;6.80;99.90
7004;DHT22;3542;48.812;9.146;2023-01-09T08:39:33;6.70;99.90
7004;DHT22;3542;48.812;9.146;2023-01-09T08:42:00;6.70;99.90
7004;DHT22;3542;48.812;9.146;2023-01-09T08:44:44;6.70;99.90
7004;DHT22;3542;48.812;9.146;2023-01-09T08:47:28;6.80;99.90
7004;DHT22;3542;48.812;9.146;2023-01-09T08:49:57;6.80;99.90
7004;DHT22;3542;48.812;9.146;2023-01-09T08:52:23;6.90;99.90
7004;DHT22;3542;48.812;9.146;2023-01-09T08:54:48;6.90;99.90
7004;DHT22;3542;48.812;9.146;2023-01-09T08:57:14;6.90;99.90
7004;DHT22;3542;48.812;9.146;2023-01-09T08:59:39;6.90;99.90
7004;DHT22;3542;48.812;9.146;2023-01-09T09:02:05;7.00;99.90
7004;DHT22;3542;48.812;9.146;2023-01-09T09:04:30;7.00;99.90
7004;DHT22;3542;48.812;9.146;2023-01-09T09:06:56;6.90;99.90
7004;DHT22;3542;48.812;9.146;2023-01-09T09:09:21;7.10;99.90
7004;DHT22;3542;48.812;9.146;2023-01-09T09:11:47;7.10;99.90
7004;DHT22;3542;48.812;9.146;2023-01-09T09:14:13;7.20;99.90
7004;DHT22;3542;48.812;9.146;2023-01-09T09:16:57;7.30;99.90
7004;DHT22;3542;48.812;9.146;2023-01-09T09:19:22;7.50;99.90
7004;DHT22;3542;48.812;9.146;2023-01-09T09:21:48;8.00;99.90
7004;DHT22;3542;48.812;9.146;2023-01-09T09:24:13;8.60;99.90
7004;DHT22;3542;48.812;9.146;2023-01-09T09:26:39;9.20;99.90
7004;DHT22;3542;48.812;9.146;2023-01-09T09:29:04;9.50;99.90
7004;DHT22;3542;48.812;9.146;2023-01-09T09:31:30;9.80;99.90
7004;DHT22;3542;48.812;9.146;2023-01-09T09:33:55;10.00;99.90
7004;DHT22;3542;48.812;9.146;2023-01-09T09:36:21;9.90;99.90
7004;DHT22;3542;48.812;9.146;2023-01-09T09:38:46;10.00;99.90
7004;DHT22;3542;48.812;9.146;2023-01-09T09:42:00;10.20;99.90
7004;DHT22;3542;48.812;9.146;2023-01-09T09:45:25;10.50;99.90
7004;DHT22;3542;48.812;9.146;2023-01-09T09:53:56;11.40;99.90
7004;DHT22;3542;48.812;9.146;2023-01-09T09:56:24;11.20;99.90
7004;DHT22;3542;48.812;9.146;2023-01-09T09:58:57;10.80;99.90
7004;DHT22;3542;48.812;9.146;2023-01-09T10:01:42;10.30;99.90
7004;DHT22;3542;48.812;9.146;2023-01-09T10:04:15;10.00;99.90
7004;DHT22;3542;48.812;9.146;2023-01-09T10:06:43;9.60;99.90
7004;DHT22;3542;48.812;9.146;2023-01-09T10:09:37;9.30;99.90
7004;DHT22;3542;48.812;9.146;2023-01-09T10:12:26;9.10;99.90
7004;DHT22;3542;48.812;9.146;2023-01-09T10:14:56;9.20;99.90
7004;DHT22;3542;48.812;9.146;2023-01-09T10:17:35;9.40;99.90
7004;DHT22;3542;48.812;9.146;2023-01-09T10:20:38;9.80;99.90
7004;DHT22;3542;48.812;9.146;2023-01-09T10:25:56;9.80;99.90
7004;DHT22;3542;48.812;9.146;2023-01-09T10:28:47;9.70;99.90
7004;DHT22;3542;48.812;9.146;2023-01-09T10:39:54;9.00;99.90
7004;DHT22;3542;48.812;9.146;2023-01-09T10:42:42;9.00;99.90
7004;DHT22;3542;48.812;9.146;2023-01-09T10:45:30;8.90;99.90
7004;DHT22;3542;48.812;9.146;2023-01-09T10:48:15;9.00;99.90
7004;DHT22;3542;48.812;9.146;2023-01-09T10:50:43;9.00;99.90
7004;DHT22;3542;48.812;9.146;2023-01-09T10:53:21;9.00;99.90
7004;DHT22;3542;48.812;9.146;2023-01-09T10:55:47;9.30;99.90
7004;DHT22;3542;48.812;9.146;2023-01-09T10:58:18;9.30;99.90
7004;DHT22;3542;48.812;9.146;2023-01-09T11:00:45;9.30;99.90
7004;DHT22;3542;48.812;9.146;2023-01-09T11:03:13;9.40;99.90
7004;DHT22;3542;48.812;9.146;2023-01-09T11:05:40;9.50;99.90
7004;DHT22;3542;48.812;9.146;2023-01-09T11:10:48;9.40;99.90
7004;DHT22;3542;48.812;9.146;2023-01-09T11:13:19;9.60;99.90
7004;DHT22;3542;48.812;9.146;2023-01-09T11:15:45;9.50;99.90
7004;DHT22;3542;48.812;9.146;2023-01-09T11:18:21;9.40;99.90
7004;DHT22;3542;48.812;9.146;2023-01-09T11:20:49;9.20;99.90
7004;DHT22;3542;48.812;9.146;2023-01-09T11:23:30;9.20;99.90
7004;DHT22;3542;48.812;9.146;2023-01-09T11:25:59;9.20;99.90
7004;DHT22;3542;48.812;9.146;2023-01-09T11:28:25;9.20;99.90
7004;DHT22;3542;48.812;9.146;2023-01-09T11:33:26;9.60;99.90
7004;DHT22;3542;48.812;9.146;2023-01-09T11:36:08;10.00;99.90
7004;DHT22;3542;48.812;9.146;2023-01-09T11:41:18;10.90;99.90
7004;DHT22;3542;48.812;9.146;2023-01-09T11:43:46;11.40;99.90
7004;DHT22;3542;48.812;9.146;2023-01-09T11:48:56;11.40;99.90
7004;DHT22;3542;48.812;9.146;2023-01-09T11:51:24;11.40;99.90
7004;DHT22;3542;48.812;9.146;2023-01-09T11:54:23;11.40;99.90
7004;DHT22;3542;48.812;9.146;2023-01-09T11:56:50;11.50;99.90
7004;DHT22;3542;48.812;9.146;2023-01-09T11:59:19;11.40;99.90
7004;DHT22;3542;48.812;9.146;2023-01-09T12:04:33;11.30;99.90
7004;DHT22;3542;48.812;9.146;2023-01-09T12:07:21;11.40;99.90
7004;DHT22;3542;48.812;9.146;2023-01-09T12:10:04;11.20;99.90
7004;DHT22;3542;48.812;9.146;2023-01-09T12:18:51;10.80;99.90
7004;DHT22;3542;48.812;9.146;2023-01-09T12:21:31;10.70;99.90
7004;DHT22;3542;48.812;9.146;2023-01-09T12:27:04;10.40;99.90
7004;DHT22;3542;48.812;9.146;2023-01-09T12:32:38;10.00;99.90
7004;DHT22;3542;48.812;9.146;2023-01-09T12:35:36;9.80;99.90
7004;DHT22;3542;48.812;9.146;2023-01-09T12:41:54;9.30;99.90
7004;DHT22;3542;48.812;9.146;2023-01-09T12:44:27;9.20;99.90
7004;DHT22;3542;48.812;9.146;2023-01-09T12:47:05;9.10;99.90
7004;DHT22;3542;48.812;9.146;2023-01-09T12:49:46;9.20;99.90
7004;DHT22;3542;48.812;9.146;2023-01-09T12:52:21;9.20;99.90
7004;DHT22;3542;48.812;9.146;2023-01-09T12:55:19;9.10;99.90
7004;DHT22;3542;48.812;9.146;2023-01-09T12:57:52;9.20;99.90
7004;DHT22;3542;48.812;9.146;2023-01-09T13:00:33;9.20;99.90
7004;DHT22;3542;48.812;9.146;2023-01-09T13:03:09;9.10;99.90
7004;DHT22;3542;48.812;9.146;2023-01-09T13:08:16;9.10;99.90
7004;DHT22;3542;48.812;9.146;2023-01-09T13:10:48;9.00;99.90
7004;DHT22;3542;48.812;9.146;2023-01-09T13:15:56;9.10;99.90
7004;DHT22;3542;48.812;9.146;2023-01-09T13:18:34;9.20;99.90
7004;DHT22;3542;48.812;9.146;2023-01-09T13:21:05;9.20;99.90
7004;DHT22;3542;48.812;9.146;2023-01-09T13:26:20;9.20;99.90
7004;DHT22;3542;48.812;9.146;2023-01-09T13:29:15;9.10;99.90
7004;DHT22;3542;48.812;9.146;2023-01-09T13:34:18;9.00;99.90
7004;DHT22;3542;48.812;9.146;2023-01-09T13:36:48;9.00;99.90
7004;DHT22;3542;48.812;9.146;2023-01-09T13:39:24;9.00;99.90
7004;DHT22;3542;48.812;9.146;2023-01-09T13:41:53;9.00;99.90
7004;DHT22;3542;48.812;9.146;2023-01-09T13:44:38;9.10;99.90
7004;DHT22;3542;48.812;9.146;2023-01-09T13:47:04;9.00;99.90
7004;DHT22;3542;48.812;9.146;2023-01-09T13:57:34;8.50;99.90
7004;DHT22;3542;48.812;9.146;2023-01-09T14:05:02;7.90;99.90
7004;DHT22;3542;48.812;9.146;2023-01-09T14:07:47;7.80;99.90
7004;DHT22;3542;48.812;9.146;2023-01-09T14:13:13;7.90;99.90
7004;DHT22;3542;48.812;9.146;2023-01-09T14:15:41;7.90;99.90
7004;DHT22;3542;48.812;9.146;2023-01-09T14:18:35;7.90;99.90
7004;DHT22;3542;48.812;9.146;2023-01-09T14:21:05;7.90;99.90
7004;DHT22;3542;48.812;9.146;2023-01-09T14:23:38;7.90;99.90
7004;DHT22;3542;48.812;9.146;2023-01-09T14:26:05;7.90;99.90
7004;DHT22;3542;48.812;9.146;2023-01-09T14:28:40;7.90;99.90
7004;DHT22;3542;48.812;9.146;2023-01-09T14:31:07;7.90;99.90
7004;DHT22;3542;48.812;9.146;2023-01-09T14:33:33;7.90;99.90
7004;DHT22;3542;48.812;9.146;2023-01-09T14:36:18;7.90;99.90
7004;DHT22;3542;48.812;9.146;2023-01-09T14:38:56;7.80;99.90
7004;DHT22;3542;48.812;9.146;2023-01-09T14:47:38;7.70;99.90
7004;DHT22;3542;48.812;9.146;2023-01-09T14:50:31;7.60;99.90
7004;DHT22;3542;48.812;9.146;2023-01-09T14:53:10;7.50;99.90
7004;DHT22;3542;48.812;9.146;2023-01-09T14:56:00;7.50;99.90
7004;DHT22;3542;48.812;9.146;2023-01-09T14:58:33;7.30;99.90
7004;DHT22;3542;48.812;9.146;2023-01-09T15:01:06;7.30;99.90
7004;DHT22;3542;48.812;9.146;2023-01-09T15:03:44;7.30;99.90
7004;DHT22;3542;48.812;9.146;2023-01-09T15:06:17;7.20;99.90
7004;DHT22;3542;48.812;9.146;2023-01-09T15:08:44;7.20;99.90
7004;DHT22;3542;48.812;9.146;2023-01-09T15:11:11;7.20;99.90
7004;DHT22;3542;48.812;9.146;2023-01-09T15:13:43;7.10;99.90
7004;DHT22;3542;48.812;9.146;2023-01-09T15:16:21;7.10;99.90
7004;DHT22;3542;48.812;9.146;2023-01-09T15:18:51;7.10;99.90
7004;DHT22;3542;48.812;9.146;2023-01-09T15:21:21;7.10;99.90
7004;DHT22;3542;48.812;9.146;2023-01-09T15:23:47;7.10;99.90
7004;DHT22;3542;48.812;9.146;2023-01-09T15:26:26;7.10;99.90
7004;DHT22;3542;48.812;9.146;2023-01-09T15:28:59;7.10;99.90
7004;DHT22;3542;48.812;9.146;2023-01-09T15:31:25;7.10;99.90
7004;DHT22;3542;48.812;9.146;2023-01-09T15:33:51;7.20;99.90
7004;DHT22;3542;48.812;9.146;2023-01-09T15:36:23;7.10;99.90
7004;DHT22;3542;48.812;9.146;2023-01-09T15:38:49;7.20;99.90
7004;DHT22;3542;48.812;9.146;2023-01-09T15:41:18;7.10;99.90
7004;DHT22;3542;48.812;9.146;2023-01-09T15:44:23;7.20;99.90
7004;DHT22;3542;48.812;9.146;2023-01-09T15:46:51;7.20;99.90
7004;DHT22;3542;48.812;9.146;2023-01-09T15:49:21;7.00;99.90
7004;DHT22;3542;48.812;9.146;2023-01-09T15:51:47;6.80;99.90
7004;DHT22;3542;48.812;9.146;2023-01-09T15:54:14;6.70;99.90
7004;DHT22;3542;48.812;9.146;2023-01-09T15:56:41;6.50;99.90
7004;DHT22;3542;48.812;9.146;2023-01-09T15:59:24;6.40;99.90
7004;DHT22;3542;48.812;9.146;2023-01-09T16:02:02;6.30;99.90
7004;DHT22;3542;48.812;9.146;2023-01-09T16:04:48;6.10;99.90
7004;DHT22;3542;48.812;9.146;2023-01-09T16:07:15;6.00;99.90
7004;DHT22;3542;48.812;9.146;2023-01-09T16:09:44;6.00;99.90
7004;DHT22;3542;48.812;9.146;2023-01-09T16:12:22;5.90;99.90
7004;DHT22;3542;48.812;9.146;2023-01-09T16:14:54;5.70;99.90
7004;DHT22;3542;48.812;9.146;2023-01-09T16:17:21;5.70;99.90
7004;DHT22;3542;48.812;9.146;2023-01-09T16:20:13;5.60;99.90
7004;DHT22;3542;48.812;9.146;2023-01-09T16:22:52;5.50;99.90
7004;DHT22;3542;48.812;9.146;2023-01-09T16:25:32;5.40;99.90
7004;DHT22;3542;48.812;9.146;2023-01-09T16:28:18;5.40;99.90
7004;DHT22;3542;48.812;9.146;2023-01-09T16:30:59;5.40;99.90
7004;DHT22;3542;48.812;9.146;2023-01-09T16:33:27;5.40;99.90
7004;DHT22;3542;48.812;9.146;2023-01-09T16:35:53;5.40;99.90
7004;DHT22;3542;48.812;9.146;2023-01-09T16:38:20;5.40;99.90
7004;DHT22;3542;48.812;9.146;2023-01-09T16:43:43;5.50;99.90
7004;DHT22;3542;48.812;9.146;2023-01-09T16:46:09;5.50;99.90
7004;DHT22;3542;48.812;9.146;2023-01-09T16:48:35;5.50;99.90
7004;DHT22;3542;48.812;9.146;2023-01-09T16:51:02;5.60;99.90
7004;DHT22;3542;48.812;9.146;2023-01-09T16:53:28;5.60;99.90
7004;DHT22;3542;48.812;9.146;2023-01-09T16:55:56;5.60;99.90
7004;DHT22;3542;48.812;9.146;2023-01-09T16:58:25;5.60;99.90
7004;DHT22;3542;48.812;9.146;2023-01-09T17:00:52;5.60;99.90
7004;DHT22;3542;48.812;9.146;2023-01-09T17:03:18;5.70;99.90
7004;DHT22;3542;48.812;9.146;2023-01-09T17:06:02;5.70;99.90
7004;DHT22;3542;48.812;9.146;2023-01-09T17:08:33;5.70;99.90
7004;DHT22;3542;48.812;9.146;2023-01-09T17:10:59;5.70;99.90
7004;DHT22;3542;48.812;9.146;2023-01-09T17:13:25;5.80;99.90
7004;DHT22;3542;48.812;9.146;2023-01-09T17:15:52;5.90;99.90
7004;DHT22;3542;48.812;9.146;2023-01-09T17:18:24;5.90;99.90
7004;DHT22;3542;48.812;9.146;2023-01-09T17:20:51;5.90;99.90
7004;DHT22;3542;48.812;9.146;2023-01-09T17:23:17;5.80;99.90
7004;DHT22;3542;48.812;9.146;2023-01-09T17:25:45;5.80;99.90
7004;DHT22;3542;48.812;9.146;2023-01-09T17:28:31;5.80;99.90
7004;DHT22;3542;48.812;9.146;2023-01-09T17:30:57;5.70;99.90
7004;DHT22;3542;48.812;9.146;2023-01-09T17:33:22;5.70;99.90
7004;DHT22;3542;48.812;9.146;2023-01-09T17:35:48;5.60;99.90
7004;DHT22;3542;48.812;9.146;2023-01-09T17:38:14;5.60;99.90
7004;DHT22;3542;48.812;9.146;2023-01-09T17:40:40;5.60;99.90
7004;DHT22;3542;48.812;9.146;2023-01-09T17:43:06;5.60;99.90
7004;DHT22;3542;48.812;9.146;2023-01-09T17:45:31;5.60;99.90
7004;DHT22;3542;48.812;9.146;2023-01-09T17:47:57;5.60;99.90
7004;DHT22;3542;48.812;9.146;2023-01-09T17:50:22;5.60;99.90
7004;DHT22;3542;48.812;9.146;2023-01-09T17:52:52;5.60;99.90
7004;DHT22;3542;48.812;9.146;2023-01-09T17:55:18;5.60;99.90
7004;DHT22;3542;48.812;9.146;2023-01-09T17:57:44;5.50;99.90
7004;DHT22;3542;48.812;9.146;2023-01-09T18:00:31;5.50;99.90
7004;DHT22;3542;48.812;9.146;2023-01-09T18:03:04;5.50;99.90
7004;DHT22;3542;48.812;9.146;2023-01-09T18:05:32;5.50;99.90
7004;DHT22;3542;48.812;9.146;2023-01-09T18:07:58;5.50;99.90
7004;DHT22;3542;48.812;9.146;2023-01-09T18:10:25;5.50;99.90
7004;DHT22;3542;48.812;9.146;2023-01-09T18:12:53;5.40;99.90
7004;DHT22;3542;48.812;9.146;2023-01-09T18:15:19;5.50;99.90
7004;DHT22;3542;48.812;9.146;2023-01-09T18:17:45;5.50;99.90
7004;DHT22;3542;48.812;9.146;2023-01-09T18:20:11;5.60;99.90
7004;DHT22;3542;48.812;9.146;2023-01-09T18:22:36;5.60;99.90
7004;DHT22;3542;48.812;9.146;2023-01-09T18:25:03;5.50;99.90
7004;DHT22;3542;48.812;9.146;2023-01-09T18:27:28;5.50;99.90
7004;DHT22;3542;48.812;9.146;2023-01-09T18:29:54;5.60;99.90
7004;DHT22;3542;48.812;9.146;2023-01-09T18:32:23;5.60;99.90
7004;DHT22;3542;48.812;9.146;2023-01-09T18:34:49;5.60;99.90
7004;DHT22;3542;48.812;9.146;2023-01-09T18:37:14;5.60;99.90
7004;DHT22;3542;48.812;9.146;2023-01-09T18:39:40;5.60;99.90
7004;DHT22;3542;48.812;9.146;2023-01-09T18:42:05;5.50;99.90
7004;DHT22;3542;48.812;9.146;2023-01-09T18:44:31;5.50;99.90
7004;DHT22;3542;48.812;9.146;2023-01-09T18:46:57;5.50;99.90
7004;DHT22;3542;48.812;9.146;2023-01-09T18:49:22;5.50;99.90
7004;DHT22;3542;48.812;9.146;2023-01-09T18:51:48;5.50;99.90
7004;DHT22;3542;48.812;9.146;2023-01-09T18:54:13;5.50;99.90
7004;DHT22;3542;48.812;9.146;2023-01-09T18:56:39;5.50;99.90
7004;DHT22;3542;48.812;9.146;2023-01-09T18:59:05;5.50;99.90
7004;DHT22;3542;48.812;9.146;2023-01-09T19:01:31;5.50;99.90
7004;DHT22;3542;48.812;9.146;2023-01-09T19:03:58;5.50;99.90
7004;DHT22;3542;48.812;9.146;2023-01-09T19:06:25;5.50;99.90
7004;DHT22;3542;48.812;9.146;2023-01-09T19:08:50;5.50;99.90
7004;DHT22;3542;48.812;9.146;2023-01-09T19:11:16;5.50;99.90
7004;DHT22;3542;48.812;9.146;2023-01-09T19:13:42;5.50;99.90
7004;DHT22;3542;48.812;9.146;2023-01-09T19:16:08;5.50;99.90
7004;DHT22;3542;48.812;9.146;2023-01-09T19:18:36;5.50;99.90
7004;DHT22;3542;48.812;9.146;2023-01-09T19:21:11;5.50;99.90
7004;DHT22;3542;48.812;9.146;2023-01-09T19:23:37;5.40;99.90
7004;DHT22;3542;48.812;9.146;2023-01-09T19:26:05;5.40;99.90
7004;DHT22;3542;48.812;9.146;2023-01-09T19:28:32;5.40;99.90
7004;DHT22;3542;48.812;9.146;2023-01-09T19:30:58;5.40;99.90